sensor_id;sensor_type;location;lat;lon;timestamp;P1;durP1;ratioP1;P2;durP2;ratioP2
31694;SDS011;18289;51.330;4.946;2023-02-11T00:01:09;16.25;;;9.00;;
31694;SDS011;18289;51.330;4.946;2023-02-11T00:03:36;17.95;;;8.95;;
31694;SDS011;18289;51.330;4.946;2023-02-11T00:06:03;16.35;;;9.88;;
31694;SDS011;18289;51.330;4.946;2023-02-11T00:08:33;17.00;;;9.20;;
31694;SDS011;18289;51.330;4.946;2023-02-11T00:10:59;17.55;;;9.48;;
31694;SDS011;18289;51.330;4.946;2023-02-11T00:13:25;16.67;;;9.30;;
31694;SDS011;18289;51.330;4.946;2023-02-11T00:15:51;19.13;;;9.70;;
31694;SDS011;18289;51.330;4.946;2023-02-11T00:18:17;18.38;;;9.93;;
31694;SDS011;18289;51.330;4.946;2023-02-11T00:20:43;19.63;;;9.13;;
31694;SDS011;18289;51.330;4.946;2023-02-11T00:23:09;16.35;;;9.10;;
31694;SDS011;18289;51.330;4.946;2023-02-11T00:25:39;18.30;;;9.15;;
31694;SDS011;18289;51.330;4.946;2023-02-11T00:28:09;14.52;;;8.38;;
31694;SDS011;18289;51.330;4.946;2023-02-11T00:30:35;14.35;;;9.60;;
31694;SDS011;18289;51.330;4.946;2023-02-11T00:33:01;22.20;;;9.32;;
31694;SDS011;18289;51.330;4.946;2023-02-11T00:35:27;13.90;;;8.98;;
31694;SDS011;18289;51.330;4.946;2023-02-11T00:37:53;17.23;;;8.88;;
31694;SDS011;18289;51.330;4.946;2023-02-11T00:40:19;20.67;;;8.70;;
31694;SDS011;18289;51.330;4.946;2023-02-11T00:42:45;15.07;;;8.95;;
31694;SDS011;18289;51.330;4.946;2023-02-11T00:45:11;24.65;;;9.43;;
31694;SDS011;18289;51.330;4.946;2023-02-11T00:47:37;16.60;;;8.35;;
31694;SDS011;18289;51.330;4.946;2023-02-11T00:50:03;16.40;;;8.80;;
31694;SDS011;18289;51.330;4.946;2023-02-11T00:52:33;16.38;;;8.70;;
31694;SDS011;18289;51.330;4.946;2023-02-11T00:54:58;17.45;;;8.43;;
31694;SDS011;18289;51.330;4.946;2023-02-11T00:57:24;15.35;;;8.88;;
31694;SDS011;18289;51.330;4.946;2023-02-11T00:59:50;15.57;;;9.18;;
31694;SDS011;18289;51.330;4.946;2023-02-11T01:02:16;14.88;;;8.65;;
31694;SDS011;18289;51.330;4.946;2023-02-11T01:04:42;14.93;;;9.38;;
31694;SDS011;18289;51.330;4.946;2023-02-11T01:07:07;18.70;;;9.40;;
31694;SDS011;18289;51.330;4.946;2023-02-11T01:09:33;15.93;;;8.98;;
31694;SDS011;18289;51.330;4.946;2023-02-11T01:12:02;20.65;;;10.05;;
31694;SDS011;18289;51.330;4.946;2023-02-11T01:14:27;20.52;;;9.82;;
31694;SDS011;18289;51.330;4.946;2023-02-11T01:16:53;15.05;;;9.07;;
31694;SDS011;18289;51.330;4.946;2023-02-11T01:19:19;17.13;;;9.55;;
31694;SDS011;18289;51.330;4.946;2023-02-11T01:21:44;16.02;;;8.75;;
31694;SDS011;18289;51.330;4.946;2023-02-11T01:24:10;14.85;;;8.40;;
31694;SDS011;18289;51.330;4.946;2023-02-11T01:26:35;13.77;;;8.45;;
31694;SDS011;18289;51.330;4.946;2023-02-11T01:29:01;17.33;;;8.38;;
31694;SDS011;18289;51.330;4.946;2023-02-11T01:31:28;17.25;;;8.90;;
31694;SDS011;18289;51.330;4.946;2023-02-11T01:33:55;17.23;;;9.30;;
31694;SDS011;18289;51.330;4.946;2023-02-11T01:36:21;19.27;;;9.00;;
31694;SDS011;18289;51.330;4.946;2023-02-11T01:38:46;16.77;;;9.02;;
31694;SDS011;18289;51.330;4.946;2023-02-11T01:41:13;15.63;;;8.00;;
31694;SDS011;18289;51.330;4.946;2023-02-11T01:43:41;17.13;;;8.52;;
31694;SDS011;18289;51.330;4.946;2023-02-11T01:51:45;16.40;;;8.43;;
31694;SDS011;18289;51.330;4.946;2023-02-11T01:54:18;13.88;;;8.25;;
31694;SDS011;18289;51.330;4.946;2023-02-11T01:57:04;15.73;;;7.78;;
31694;SDS011;18289;51.330;4.946;2023-02-11T02:02:37;15.65;;;7.68;;
31694;SDS011;18289;51.330;4.946;2023-02-11T02:10:34;16.40;;;7.10;;
31694;SDS011;18289;51.330;4.946;2023-02-11T02:15:31;13.52;;;7.07;;
31694;SDS011;18289;51.330;4.946;2023-02-11T02:18:05;14.65;;;7.45;;
31694;SDS011;18289;51.330;4.946;2023-02-11T02:31:52;15.63;;;6.80;;
31694;SDS011;18289;51.330;4.946;2023-02-11T02:37:30;14.68;;;6.95;;
31694;SDS011;18289;51.330;4.946;2023-02-11T02:40:05;15.70;;;6.68;;
31694;SDS011;18289;51.330;4.946;2023-02-11T02:42:35;11.95;;;6.00;;
31694;SDS011;18289;51.330;4.946;2023-02-11T02:45:05;14.15;;;6.38;;
31694;SDS011;18289;51.330;4.946;2023-02-11T02:47:35;13.73;;;6.75;;
31694;SDS011;18289;51.330;4.946;2023-02-11T02:50:00;21.55;;;6.93;;
31694;SDS011;18289;51.330;4.946;2023-02-11T02:55:25;18.85;;;6.32;;
31694;SDS011;18289;51.330;4.946;2023-02-11T03:01:14;16.88;;;7.05;;
31694;SDS011;18289;51.330;4.946;2023-02-11T03:08:59;16.40;;;6.45;;
31694;SDS011;18289;51.330;4.946;2023-02-11T03:11:33;16.77;;;7.72;;
31694;SDS011;18289;51.330;4.946;2023-02-11T03:14:01;11.95;;;6.45;;
31694;SDS011;18289;51.330;4.946;2023-02-11T03:16:28;17.92;;;6.78;;
31694;SDS011;18289;51.330;4.946;2023-02-11T03:19:04;14.43;;;6.60;;
31694;SDS011;18289;51.330;4.946;2023-02-11T03:21:57;16.33;;;7.85;;
31694;SDS011;18289;51.330;4.946;2023-02-11T03:24:34;11.25;;;6.55;;
31694;SDS011;18289;51.330;4.946;2023-02-11T03:27:13;12.00;;;7.03;;
31694;SDS011;18289;51.330;4.946;2023-02-11T03:32:32;11.88;;;6.75;;
31694;SDS011;18289;51.330;4.946;2023-02-11T03:35:42;20.70;;;8.23;;
31694;SDS011;18289;51.330;4.946;2023-02-11T03:37:54;13.57;;;6.88;;
31694;SDS011;18289;51.330;4.946;2023-02-11T03:40:26;17.52;;;7.28;;
31694;SDS011;18289;51.330;4.946;2023-02-11T03:42:57;12.98;;;7.93;;
31694;SDS011;18289;51.330;4.946;2023-02-11T03:45:36;14.57;;;7.00;;
31694;SDS011;18289;51.330;4.946;2023-02-11T03:48:04;17.20;;;7.55;;
31694;SDS011;18289;51.330;4.946;2023-02-11T03:50:35;12.93;;;7.13;;
31694;SDS011;18289;51.330;4.946;2023-02-11T03:53:02;17.35;;;6.93;;
31694;SDS011;18289;51.330;4.946;2023-02-11T03:55:29;14.45;;;8.02;;
31694;SDS011;18289;51.330;4.946;2023-02-11T03:58:00;15.65;;;8.13;;
31694;SDS011;18289;51.330;4.946;2023-02-11T04:00:30;15.57;;;8.10;;
31694;SDS011;18289;51.330;4.946;2023-02-11T04:02:57;18.15;;;7.63;;
31694;SDS011;18289;51.330;4.946;2023-02-11T04:05:22;19.45;;;8.07;;
31694;SDS011;18289;51.330;4.946;2023-02-11T04:07:48;12.52;;;8.00;;
31694;SDS011;18289;51.330;4.946;2023-02-11T04:10:14;12.52;;;7.13;;
31694;SDS011;18289;51.330;4.946;2023-02-11T04:12:39;25.30;;;8.02;;
31694;SDS011;18289;51.330;4.946;2023-02-11T04:15:05;13.98;;;7.57;;
31694;SDS011;18289;51.330;4.946;2023-02-11T04:17:32;17.58;;;7.80;;
31694;SDS011;18289;51.330;4.946;2023-02-11T04:19:57;15.88;;;8.25;;
31694;SDS011;18289;51.330;4.946;2023-02-11T04:22:23;14.32;;;7.57;;
31694;SDS011;18289;51.330;4.946;2023-02-11T04:24:49;17.42;;;7.88;;
31694;SDS011;18289;51.330;4.946;2023-02-11T04:27:14;16.65;;;7.72;;
31694;SDS011;18289;51.330;4.946;2023-02-11T04:29:40;13.10;;;7.85;;
31694;SDS011;18289;51.330;4.946;2023-02-11T04:32:06;16.23;;;7.93;;
31694;SDS011;18289;51.330;4.946;2023-02-11T04:34:31;15.65;;;9.15;;
31694;SDS011;18289;51.330;4.946;2023-02-11T04:36:57;15.13;;;7.45;;
31694;SDS011;18289;51.330;4.946;2023-02-11T04:39:23;15.52;;;8.15;;
31694;SDS011;18289;51.330;4.946;2023-02-11T04:41:48;17.13;;;8.95;;
31694;SDS011;18289;51.330;4.946;2023-02-11T04:44:14;15.05;;;8.05;;
31694;SDS011;18289;51.330;4.946;2023-02-11T04:46:40;14.23;;;7.88;;
31694;SDS011;18289;51.330;4.946;2023-02-11T04:49:05;12.63;;;8.38;;
31694;SDS011;18289;51.330;4.946;2023-02-11T04:51:31;17.67;;;9.60;;
31694;SDS011;18289;51.330;4.946;2023-02-11T04:53:57;21.67;;;8.55;;
31694;SDS011;18289;51.330;4.946;2023-02-11T04:56:23;14.75;;;9.13;;
31694;SDS011;18289;51.330;4.946;2023-02-11T04:58:48;16.92;;;9.65;;
31694;SDS011;18289;51.330;4.946;2023-02-11T05:01:14;16.55;;;8.70;;
31694;SDS011;18289;51.330;4.946;2023-02-11T05:03:41;17.83;;;11.80;;
31694;SDS011;18289;51.330;4.946;2023-02-11T05:06:08;20.23;;;9.05;;
31694;SDS011;18289;51.330;4.946;2023-02-11T05:08:34;24.08;;;9.57;;
31694;SDS011;18289;51.330;4.946;2023-02-11T05:11:00;20.05;;;10.27;;
31694;SDS011;18289;51.330;4.946;2023-02-11T05:13:28;18.60;;;10.30;;
31694;SDS011;18289;51.330;4.946;2023-02-11T05:15:55;15.38;;;9.55;;
31694;SDS011;18289;51.330;4.946;2023-02-11T05:18:20;16.40;;;10.10;;
31694;SDS011;18289;51.330;4.946;2023-02-11T05:20:46;29.02;;;11.63;;
31694;SDS011;18289;51.330;4.946;2023-02-11T05:23:12;18.05;;;10.05;;
31694;SDS011;18289;51.330;4.946;2023-02-11T05:25:38;18.00;;;9.40;;
31694;SDS011;18289;51.330;4.946;2023-02-11T05:28:04;18.08;;;9.95;;
31694;SDS011;18289;51.330;4.946;2023-02-11T05:30:30;24.95;;;10.25;;
31694;SDS011;18289;51.330;4.946;2023-02-11T05:32:56;16.33;;;10.43;;
31694;SDS011;18289;51.330;4.946;2023-02-11T05:35:22;20.70;;;10.90;;
31694;SDS011;18289;51.330;4.946;2023-02-11T05:37:48;19.95;;;10.35;;
31694;SDS011;18289;51.330;4.946;2023-02-11T05:40:14;18.67;;;9.93;;
31694;SDS011;18289;51.330;4.946;2023-02-11T05:42:39;16.65;;;10.93;;
31694;SDS011;18289;51.330;4.946;2023-02-11T05:45:05;16.45;;;11.23;;
31694;SDS011;18289;51.330;4.946;2023-02-11T05:47:31;21.70;;;11.10;;
31694;SDS011;18289;51.330;4.946;2023-02-11T05:49:57;17.17;;;11.65;;
31694;SDS011;18289;51.330;4.946;2023-02-11T05:52:22;18.65;;;11.65;;
31694;SDS011;18289;51.330;4.946;2023-02-11T05:54:49;17.75;;;10.80;;
31694;SDS011;18289;51.330;4.946;2023-02-11T05:57:16;24.40;;;12.60;;
31694;SDS011;18289;51.330;4.946;2023-02-11T05:59:42;19.65;;;11.30;;
31694;SDS011;18289;51.330;4.946;2023-02-11T06:02:08;17.38;;;11.13;;
31694;SDS011;18289;51.330;4.946;2023-02-11T06:04:35;21.92;;;11.80;;
31694;SDS011;18289;51.330;4.946;2023-02-11T06:07:01;20.90;;;12.57;;
31694;SDS011;18289;51.330;4.946;2023-02-11T06:09:27;17.85;;;11.43;;
31694;SDS011;18289;51.330;4.946;2023-02-11T06:11:53;20.73;;;12.77;;
31694;SDS011;18289;51.330;4.946;2023-02-11T06:14:19;25.23;;;13.30;;
31694;SDS011;18289;51.330;4.946;2023-02-11T06:16:44;23.85;;;11.73;;
31694;SDS011;18289;51.330;4.946;2023-02-11T06:19:10;20.42;;;12.60;;
31694;SDS011;18289;51.330;4.946;2023-02-11T06:21:36;22.98;;;12.40;;
31694;SDS011;18289;51.330;4.946;2023-02-11T06:24:03;21.42;;;12.30;;
31694;SDS011;18289;51.330;4.946;2023-02-11T06:26:30;19.65;;;12.55;;
31694;SDS011;18289;51.330;4.946;2023-02-11T06:28:58;20.17;;;12.00;;
31694;SDS011;18289;51.330;4.946;2023-02-11T06:31:24;21.63;;;12.05;;
31694;SDS011;18289;51.330;4.946;2023-02-11T06:33:50;23.30;;;14.05;;
31694;SDS011;18289;51.330;4.946;2023-02-11T06:36:17;28.05;;;14.43;;
31694;SDS011;18289;51.330;4.946;2023-02-11T06:38:44;24.48;;;14.05;;
31694;SDS011;18289;51.330;4.946;2023-02-11T06:41:11;28.13;;;13.27;;
31694;SDS011;18289;51.330;4.946;2023-02-11T06:43:38;25.63;;;15.25;;
31694;SDS011;18289;51.330;4.946;2023-02-11T06:46:04;23.50;;;14.60;;
31694;SDS011;18289;51.330;4.946;2023-02-11T06:48:31;23.83;;;14.45;;
31694;SDS011;18289;51.330;4.946;2023-02-11T06:51:00;26.35;;;14.57;;
31694;SDS011;18289;51.330;4.946;2023-02-11T06:53:27;31.73;;;14.88;;
31694;SDS011;18289;51.330;4.946;2023-02-11T06:55:53;29.13;;;14.73;;
31694;SDS011;18289;51.330;4.946;2023-02-11T06:58:19;26.90;;;15.32;;
31694;SDS011;18289;51.330;4.946;2023-02-11T07:00:44;28.95;;;15.65;;
31694;SDS011;18289;51.330;4.946;2023-02-11T07:03:10;26.92;;;15.88;;
31694;SDS011;18289;51.330;4.946;2023-02-11T07:05:35;26.05;;;16.05;;
31694;SDS011;18289;51.330;4.946;2023-02-11T07:08:02;25.10;;;15.25;;
31694;SDS011;18289;51.330;4.946;2023-02-11T07:10:28;24.27;;;15.25;;
31694;SDS011;18289;51.330;4.946;2023-02-11T07:12:54;30.67;;;15.93;;
31694;SDS011;18289;51.330;4.946;2023-02-11T07:15:20;30.92;;;16.27;;
31694;SDS011;18289;51.330;4.946;2023-02-11T07:17:45;29.63;;;16.83;;
31694;SDS011;18289;51.330;4.946;2023-02-11T07:20:11;28.45;;;17.00;;
31694;SDS011;18289;51.330;4.946;2023-02-11T07:22:39;33.47;;;16.17;;
31694;SDS011;18289;51.330;4.946;2023-02-11T07:25:04;27.55;;;16.23;;
31694;SDS011;18289;51.330;4.946;2023-02-11T07:27:30;30.17;;;17.92;;
31694;SDS011;18289;51.330;4.946;2023-02-11T07:29:56;31.55;;;19.08;;
31694;SDS011;18289;51.330;4.946;2023-02-11T07:32:22;35.22;;;18.13;;
31694;SDS011;18289;51.330;4.946;2023-02-11T07:34:47;36.80;;;19.83;;
31694;SDS011;18289;51.330;4.946;2023-02-11T07:37:13;37.40;;;18.60;;
31694;SDS011;18289;51.330;4.946;2023-02-11T07:39:39;35.08;;;20.10;;
31694;SDS011;18289;51.330;4.946;2023-02-11T07:42:05;39.58;;;20.27;;
31694;SDS011;18289;51.330;4.946;2023-02-11T07:44:30;32.20;;;19.48;;
31694;SDS011;18289;51.330;4.946;2023-02-11T07:46:57;31.60;;;19.80;;
31694;SDS011;18289;51.330;4.946;2023-02-11T07:49:23;34.65;;;22.48;;
31694;SDS011;18289;51.330;4.946;2023-02-11T07:51:49;38.60;;;21.33;;
31694;SDS011;18289;51.330;4.946;2023-02-11T07:54:15;37.88;;;22.23;;
31694;SDS011;18289;51.330;4.946;2023-02-11T07:56:41;36.63;;;22.70;;
31694;SDS011;18289;51.330;4.946;2023-02-11T07:59:07;37.63;;;21.52;;
31694;SDS011;18289;51.330;4.946;2023-02-11T08:01:33;41.42;;;23.00;;
31694;SDS011;18289;51.330;4.946;2023-02-11T08:03:59;44.00;;;22.45;;
31694;SDS011;18289;51.330;4.946;2023-02-11T08:06:26;48.45;;;22.10;;
31694;SDS011;18289;51.330;4.946;2023-02-11T08:08:53;46.65;;;23.90;;
31694;SDS011;18289;51.330;4.946;2023-02-11T08:11:24;43.45;;;24.10;;
31694;SDS011;18289;51.330;4.946;2023-02-11T08:13:51;41.22;;;23.50;;
31694;SDS011;18289;51.330;4.946;2023-02-11T08:18:50;48.55;;;24.92;;
31694;SDS011;18289;51.330;4.946;2023-02-11T08:21:17;43.28;;;22.90;;
31694;SDS011;18289;51.330;4.946;2023-02-11T08:23:44;46.80;;;25.25;;
31694;SDS011;18289;51.330;4.946;2023-02-11T08:26:17;40.95;;;24.02;;
31694;SDS011;18289;51.330;4.946;2023-02-11T08:28:48;48.33;;;23.58;;
31694;SDS011;18289;51.330;4.946;2023-02-11T08:31:16;42.63;;;24.08;;
31694;SDS011;18289;51.330;4.946;2023-02-11T08:36:11;42.67;;;23.63;;
31694;SDS011;18289;51.330;4.946;2023-02-11T08:38:38;40.60;;;22.60;;
31694;SDS011;18289;51.330;4.946;2023-02-11T08:41:04;46.45;;;24.35;;
31694;SDS011;18289;51.330;4.946;2023-02-11T08:43:30;47.92;;;25.65;;
31694;SDS011;18289;51.330;4.946;2023-02-11T08:45:57;45.97;;;25.65;;
31694;SDS011;18289;51.330;4.946;2023-02-11T08:48:23;54.22;;;27.25;;
31694;SDS011;18289;51.330;4.946;2023-02-11T08:50:49;55.72;;;26.20;;
31694;SDS011;18289;51.330;4.946;2023-02-11T08:53:14;48.47;;;26.77;;
31694;SDS011;18289;51.330;4.946;2023-02-11T08:55:46;42.33;;;25.83;;
31694;SDS011;18289;51.330;4.946;2023-02-11T08:58:13;51.53;;;26.60;;
31694;SDS011;18289;51.330;4.946;2023-02-11T09:00:38;45.50;;;24.42;;
31694;SDS011;18289;51.330;4.946;2023-02-11T09:03:04;50.88;;;27.95;;
31694;SDS011;18289;51.330;4.946;2023-02-11T09:05:30;49.80;;;27.42;;
31694;SDS011;18289;51.330;4.946;2023-02-11T09:07:55;41.67;;;25.33;;
31694;SDS011;18289;51.330;4.946;2023-02-11T09:10:21;46.15;;;25.65;;
31694;SDS011;18289;51.330;4.946;2023-02-11T09:12:47;49.50;;;27.80;;
31694;SDS011;18289;51.330;4.946;2023-02-11T09:15:12;40.80;;;26.30;;
31694;SDS011;18289;51.330;4.946;2023-02-11T09:17:38;51.35;;;27.20;;
31694;SDS011;18289;51.330;4.946;2023-02-11T09:20:04;48.42;;;27.48;;
31694;SDS011;18289;51.330;4.946;2023-02-11T09:22:30;51.72;;;26.90;;
31694;SDS011;18289;51.330;4.946;2023-02-11T09:24:55;47.00;;;27.75;;
31694;SDS011;18289;51.330;4.946;2023-02-11T09:27:21;53.30;;;28.05;;
31694;SDS011;18289;51.330;4.946;2023-02-11T09:29:46;52.47;;;29.00;;
31694;SDS011;18289;51.330;4.946;2023-02-11T09:32:12;43.40;;;27.52;;
31694;SDS011;18289;51.330;4.946;2023-02-11T09:34:38;57.17;;;29.08;;
31694;SDS011;18289;51.330;4.946;2023-02-11T09:37:03;49.45;;;30.00;;
31694;SDS011;18289;51.330;4.946;2023-02-11T09:39:29;58.40;;;29.63;;
31694;SDS011;18289;51.330;4.946;2023-02-11T09:44:58;51.80;;;28.70;;
31694;SDS011;18289;51.330;4.946;2023-02-11T09:47:33;57.17;;;29.92;;
31694;SDS011;18289;51.330;4.946;2023-02-11T09:50:13;51.38;;;29.88;;
31694;SDS011;18289;51.330;4.946;2023-02-11T09:52:50;54.78;;;29.38;;
31694;SDS011;18289;51.330;4.946;2023-02-11T09:55:30;57.42;;;31.33;;
31694;SDS011;18289;51.330;4.946;2023-02-11T09:58:11;59.13;;;31.13;;
31694;SDS011;18289;51.330;4.946;2023-02-11T10:03:50;53.53;;;31.83;;
31694;SDS011;18289;51.330;4.946;2023-02-11T10:06:40;61.97;;;34.00;;
31694;SDS011;18289;51.330;4.946;2023-02-11T10:22:33;64.03;;;32.75;;
31694;SDS011;18289;51.330;4.946;2023-02-11T10:25:27;60.53;;;32.63;;
31694;SDS011;18289;51.330;4.946;2023-02-11T10:28:00;64.78;;;33.13;;
31694;SDS011;18289;51.330;4.946;2023-02-11T10:30:45;57.58;;;33.03;;
31694;SDS011;18289;51.330;4.946;2023-02-11T10:33:32;59.95;;;31.92;;
31694;SDS011;18289;51.330;4.946;2023-02-11T10:36:23;60.13;;;32.80;;
31694;SDS011;18289;51.330;4.946;2023-02-11T10:38:52;60.38;;;33.47;;
31694;SDS011;18289;51.330;4.946;2023-02-11T10:41:23;60.13;;;33.13;;
31694;SDS011;18289;51.330;4.946;2023-02-11T10:43:55;61.05;;;33.55;;
31694;SDS011;18289;51.330;4.946;2023-02-11T10:46:21;60.72;;;35.80;;
31694;SDS011;18289;51.330;4.946;2023-02-11T10:48:53;62.70;;;35.08;;
31694;SDS011;18289;51.330;4.946;2023-02-11T10:51:23;58.50;;;33.45;;
31694;SDS011;18289;51.330;4.946;2023-02-11T10:56:28;57.92;;;34.55;;
31694;SDS011;18289;51.330;4.946;2023-02-11T10:59:16;62.25;;;33.63;;
31694;SDS011;18289;51.330;4.946;2023-02-11T11:01:58;55.67;;;33.22;;
31694;SDS011;18289;51.330;4.946;2023-02-11T11:06:57;59.38;;;34.55;;
31694;SDS011;18289;51.330;4.946;2023-02-11T11:15:27;61.72;;;34.58;;
31694;SDS011;18289;51.330;4.946;2023-02-11T11:18:14;55.13;;;34.47;;
31694;SDS011;18289;51.330;4.946;2023-02-11T11:20:58;59.00;;;33.67;;
31694;SDS011;18289;51.330;4.946;2023-02-11T11:23:26;58.55;;;33.42;;
31694;SDS011;18289;51.330;4.946;2023-02-11T11:26:10;64.85;;;33.63;;
31694;SDS011;18289;51.330;4.946;2023-02-11T11:28:41;57.70;;;33.85;;
31694;SDS011;18289;51.330;4.946;2023-02-11T11:31:14;55.78;;;33.88;;
31694;SDS011;18289;51.330;4.946;2023-02-11T11:33:44;57.10;;;34.38;;
31694;SDS011;18289;51.330;4.946;2023-02-11T11:36:12;56.08;;;34.08;;
31694;SDS011;18289;51.330;4.946;2023-02-11T11:38:43;62.75;;;37.08;;
31694;SDS011;18289;51.330;4.946;2023-02-11T11:41:24;58.55;;;36.00;;
31694;SDS011;18289;51.330;4.946;2023-02-11T11:49:44;58.47;;;33.88;;
31694;SDS011;18289;51.330;4.946;2023-02-11T11:52:17;62.22;;;34.75;;
31694;SDS011;18289;51.330;4.946;2023-02-11T11:54:49;57.75;;;34.33;;
31694;SDS011;18289;51.330;4.946;2023-02-11T11:57:24;58.17;;;34.10;;
31694;SDS011;18289;51.330;4.946;2023-02-11T11:59:52;58.40;;;33.90;;
31694;SDS011;18289;51.330;4.946;2023-02-11T12:13:39;57.70;;;33.83;;
31694;SDS011;18289;51.330;4.946;2023-02-11T12:26:48;55.47;;;34.58;;
31694;SDS011;18289;51.330;4.946;2023-02-11T12:39:55;52.88;;;32.50;;
31694;SDS011;18289;51.330;4.946;2023-02-11T12:45:31;52.03;;;32.42;;
31694;SDS011;18289;51.330;4.946;2023-02-11T12:50:59;50.78;;;31.30;;
31694;SDS011;18289;51.330;4.946;2023-02-11T12:56:15;50.80;;;34.00;;
31694;SDS011;18289;51.330;4.946;2023-02-11T12:58:55;50.92;;;33.60;;
31694;SDS011;18289;51.330;4.946;2023-02-11T13:01:58;56.35;;;35.20;;
31694;SDS011;18289;51.330;4.946;2023-02-11T13:04:27;50.33;;;32.80;;
31694;SDS011;18289;51.330;4.946;2023-02-11T13:07:01;57.25;;;33.58;;
31694;SDS011;18289;51.330;4.946;2023-02-11T13:09:34;55.08;;;35.70;;
31694;SDS011;18289;51.330;4.946;2023-02-11T13:12:05;51.05;;;34.25;;
31694;SDS011;18289;51.330;4.946;2023-02-11T13:17:32;52.45;;;33.55;;
31694;SDS011;18289;51.330;4.946;2023-02-11T13:20:12;52.00;;;33.10;;
31694;SDS011;18289;51.330;4.946;2023-02-11T13:25:49;50.40;;;32.53;;
31694;SDS011;18289;51.330;4.946;2023-02-11T13:31:32;44.65;;;31.90;;
31694;SDS011;18289;51.330;4.946;2023-02-11T13:33:58;48.65;;;31.20;;
31694;SDS011;18289;51.330;4.946;2023-02-11T13:36:26;47.30;;;30.67;;
31694;SDS011;18289;51.330;4.946;2023-02-11T13:38:53;51.05;;;31.67;;
31694;SDS011;18289;51.330;4.946;2023-02-11T13:41:24;51.35;;;31.98;;
31694;SDS011;18289;51.330;4.946;2023-02-11T13:47:00;47.42;;;30.85;;
31694;SDS011;18289;51.330;4.946;2023-02-11T13:52:05;43.22;;;29.70;;
31694;SDS011;18289;51.330;4.946;2023-02-11T13:54:49;47.58;;;30.65;;
31694;SDS011;18289;51.330;4.946;2023-02-11T13:57:21;45.88;;;30.65;;
31694;SDS011;18289;51.330;4.946;2023-02-11T14:00:00;51.28;;;31.73;;
31694;SDS011;18289;51.330;4.946;2023-02-11T14:02:34;45.05;;;30.33;;
31694;SDS011;18289;51.330;4.946;2023-02-11T14:10:57;43.22;;;28.48;;
31694;SDS011;18289;51.330;4.946;2023-02-11T14:16:04;39.60;;;29.98;;
31694;SDS011;18289;51.330;4.946;2023-02-11T14:18:56;48.28;;;30.95;;
31694;SDS011;18289;51.330;4.946;2023-02-11T14:35:11;46.92;;;30.70;;
31694;SDS011;18289;51.330;4.946;2023-02-11T14:37:52;41.55;;;29.60;;
31694;SDS011;18289;51.330;4.946;2023-02-11T14:40:26;44.35;;;29.88;;
31694;SDS011;18289;51.330;4.946;2023-02-11T14:43:46;38.47;;;28.25;;
31694;SDS011;18289;51.330;4.946;2023-02-11T14:45:50;39.47;;;28.17;;
31694;SDS011;18289;51.330;4.946;2023-02-11T14:48:20;40.85;;;29.20;;
31694;SDS011;18289;51.330;4.946;2023-02-11T14:53:50;41.88;;;27.92;;
31694;SDS011;18289;51.330;4.946;2023-02-11T14:56:21;39.40;;;28.52;;
31694;SDS011;18289;51.330;4.946;2023-02-11T14:58:50;40.80;;;28.20;;
31694;SDS011;18289;51.330;4.946;2023-02-11T15:01:25;40.60;;;26.90;;
31694;SDS011;18289;51.330;4.946;2023-02-11T15:04:02;45.00;;;28.25;;
31694;SDS011;18289;51.330;4.946;2023-02-11T15:06:31;43.45;;;29.55;;
31694;SDS011;18289;51.330;4.946;2023-02-11T15:09:02;39.33;;;27.40;;
31694;SDS011;18289;51.330;4.946;2023-02-11T15:11:31;39.70;;;28.63;;
31694;SDS011;18289;51.330;4.946;2023-02-11T15:14:29;38.70;;;25.30;;
31694;SDS011;18289;51.330;4.946;2023-02-11T15:16:56;39.58;;;27.08;;
31694;SDS011;18289;51.330;4.946;2023-02-11T15:19:26;38.03;;;25.63;;
31694;SDS011;18289;51.330;4.946;2023-02-11T15:21:55;42.00;;;26.80;;
31694;SDS011;18289;51.330;4.946;2023-02-11T15:26:54;37.17;;;24.25;;
31694;SDS011;18289;51.330;4.946;2023-02-11T15:29:23;32.10;;;23.23;;
31694;SDS011;18289;51.330;4.946;2023-02-11T15:32:09;28.98;;;21.70;;
31694;SDS011;18289;51.330;4.946;2023-02-11T15:34:38;30.15;;;20.98;;
31694;SDS011;18289;51.330;4.946;2023-02-11T15:37:04;25.00;;;19.65;;
31694;SDS011;18289;51.330;4.946;2023-02-11T15:39:38;26.77;;;19.55;;
31694;SDS011;18289;51.330;4.946;2023-02-11T15:42:15;27.17;;;18.65;;
31694;SDS011;18289;51.330;4.946;2023-02-11T15:44:43;27.58;;;19.77;;
31694;SDS011;18289;51.330;4.946;2023-02-11T15:47:14;31.65;;;19.88;;
31694;SDS011;18289;51.330;4.946;2023-02-11T15:49:44;27.70;;;19.73;;
31694;SDS011;18289;51.330;4.946;2023-02-11T15:52:14;26.33;;;18.42;;
31694;SDS011;18289;51.330;4.946;2023-02-11T15:54:48;25.35;;;17.25;;
31694;SDS011;18289;51.330;4.946;2023-02-11T15:57:14;26.98;;;17.05;;
31694;SDS011;18289;51.330;4.946;2023-02-11T15:59:44;27.08;;;17.67;;
31694;SDS011;18289;51.330;4.946;2023-02-11T16:02:20;27.15;;;17.52;;
31694;SDS011;18289;51.330;4.946;2023-02-11T16:04:54;28.90;;;18.42;;
31694;SDS011;18289;51.330;4.946;2023-02-11T16:07:37;25.70;;;18.23;;
31694;SDS011;18289;51.330;4.946;2023-02-11T16:10:18;25.77;;;18.08;;
31694;SDS011;18289;51.330;4.946;2023-02-11T16:15:51;31.08;;;20.75;;
31694;SDS011;18289;51.330;4.946;2023-02-11T16:18:37;31.58;;;22.00;;
31694;SDS011;18289;51.330;4.946;2023-02-11T16:21:13;30.77;;;21.05;;
31694;SDS011;18289;51.330;4.946;2023-02-11T16:23:40;29.45;;;20.88;;
31694;SDS011;18289;51.330;4.946;2023-02-11T16:26:11;30.20;;;23.00;;
31694;SDS011;18289;51.330;4.946;2023-02-11T16:28:49;34.85;;;24.70;;
31694;SDS011;18289;51.330;4.946;2023-02-11T16:31:15;35.78;;;25.52;;
31694;SDS011;18289;51.330;4.946;2023-02-11T16:33:41;39.00;;;26.67;;
31694;SDS011;18289;51.330;4.946;2023-02-11T16:36:14;37.65;;;25.92;;
31694;SDS011;18289;51.330;4.946;2023-02-11T16:38:43;37.35;;;26.55;;
31694;SDS011;18289;51.330;4.946;2023-02-11T16:41:08;37.50;;;27.65;;
31694;SDS011;18289;51.330;4.946;2023-02-11T16:43:37;40.50;;;26.67;;
31694;SDS011;18289;51.330;4.946;2023-02-11T16:46:03;41.03;;;26.65;;
31694;SDS011;18289;51.330;4.946;2023-02-11T16:48:29;42.10;;;27.65;;
31694;SDS011;18289;51.330;4.946;2023-02-11T16:50:56;39.15;;;28.08;;
31694;SDS011;18289;51.330;4.946;2023-02-11T16:53:23;39.05;;;27.92;;
31694;SDS011;18289;51.330;4.946;2023-02-11T16:55:49;41.22;;;28.58;;
31694;SDS011;18289;51.330;4.946;2023-02-11T16:58:16;39.60;;;28.13;;
31694;SDS011;18289;51.330;4.946;2023-02-11T17:00:42;40.75;;;28.33;;
31694;SDS011;18289;51.330;4.946;2023-02-11T17:03:13;43.05;;;29.20;;
31694;SDS011;18289;51.330;4.946;2023-02-11T17:05:45;42.28;;;27.70;;
31694;SDS011;18289;51.330;4.946;2023-02-11T17:08:10;39.65;;;28.13;;
31694;SDS011;18289;51.330;4.946;2023-02-11T17:10:36;40.95;;;28.08;;
31694;SDS011;18289;51.330;4.946;2023-02-11T17:13:05;42.10;;;28.42;;
31694;SDS011;18289;51.330;4.946;2023-02-11T17:15:31;45.77;;;29.30;;
31694;SDS011;18289;51.330;4.946;2023-02-11T17:17:57;43.67;;;30.25;;
31694;SDS011;18289;51.330;4.946;2023-02-11T17:20:23;43.72;;;29.73;;
31694;SDS011;18289;51.330;4.946;2023-02-11T17:22:49;48.22;;;30.33;;
31694;SDS011;18289;51.330;4.946;2023-02-11T17:25:15;39.85;;;28.10;;
31694;SDS011;18289;51.330;4.946;2023-02-11T17:27:42;39.10;;;28.65;;
31694;SDS011;18289;51.330;4.946;2023-02-11T17:30:08;42.17;;;29.27;;
31694;SDS011;18289;51.330;4.946;2023-02-11T17:32:35;41.38;;;28.92;;